createdAt,value
2022-10-07T00:02:59.667Z,11.83
2022-10-07T00:06:14.235Z,11.78
2022-10-07T00:09:22.658Z,11.77
2022-10-07T00:12:31.341Z,11.78
2022-10-07T00:15:39.819Z,11.78
2022-10-07T00:18:49.184Z,11.80
2022-10-07T00:21:59.075Z,11.71
2022-10-07T00:25:08.308Z,11.63
2022-10-07T00:28:16.894Z,11.51
2022-10-07T00:31:28.099Z,11.38
2022-10-07T00:34:36.502Z,11.08
2022-10-07T00:37:46.862Z,11.02
2022-10-07T00:40:55.482Z,10.89
2022-10-07T00:44:38.659Z,10.71
2022-10-07T00:47:50.868Z,10.56
2022-10-07T00:51:02.817Z,10.52
2022-10-07T00:54:18.154Z,10.40
2022-10-07T00:57:31.914Z,10.27
2022-10-07T01:00:42.524Z,10.26
2022-10-07T01:03:50.892Z,10.17
2022-10-07T01:06:59.326Z,10.00
2022-10-07T01:10:13.699Z,9.99
2022-10-07T01:13:34.569Z,9.91
2022-10-07T01:16:57.898Z,9.81
2022-10-07T01:20:29.606Z,9.79
2022-10-07T01:24:04.676Z,9.76
2022-10-07T01:27:17.840Z,9.69
2022-10-07T01:30:26.901Z,9.66
2022-10-07T01:33:38.067Z,9.54
2022-10-07T01:36:51.938Z,9.50
2022-10-07T01:40:06.366Z,9.48
2022-10-07T01:43:21.061Z,9.34
2022-10-07T01:46:30.512Z,9.28
2022-10-07T01:49:41.225Z,9.26
2022-10-07T01:53:12.533Z,9.23
2022-10-07T01:56:43.616Z,9.20
2022-10-07T02:00:10.546Z,9.20
2022-10-07T02:04:05.670Z,9.16
2022-10-07T02:07:29.440Z,9.15
2022-10-07T02:10:54.597Z,9.10
2022-10-07T02:14:12.923Z,9.07
2022-10-07T02:17:29.084Z,9.03
2022-10-07T02:20:41.603Z,9.03
2022-10-07T02:23:52.041Z,8.97
2022-10-07T02:27:06.339Z,8.96
2022-10-07T02:30:23.282Z,8.86
2022-10-07T02:33:43.899Z,8.81
2022-10-07T02:37:02.781Z,8.76
2022-10-07T02:40:13.444Z,8.71
2022-10-07T02:43:32.191Z,8.76
2022-10-07T02:46:48.910Z,8.58
2022-10-07T02:50:05.512Z,8.56
2022-10-07T02:53:16.205Z,8.53
2022-10-07T02:56:28.391Z,8.36
2022-10-07T02:59:38.798Z,8.38
2022-10-07T03:02:52.952Z,8.38
2022-10-07T03:06:06.024Z,8.30
2022-10-07T03:09:17.293Z,8.26
2022-10-07T03:12:25.585Z,8.31
2022-10-07T03:15:41.822Z,8.28
2022-10-07T03:18:53.148Z,8.15
2022-10-07T03:22:10.281Z,8.10
2022-10-07T03:25:21.251Z,8.15
2022-10-07T03:28:37.474Z,8.10
2022-10-07T03:31:46.998Z,8.10
2022-10-07T03:34:56.474Z,8.05
2022-10-07T03:38:08.300Z,8.03
2022-10-07T03:41:17.808Z,8.00
2022-10-07T03:44:26.641Z,7.90
2022-10-07T03:47:36.977Z,7.94
2022-10-07T03:50:50.489Z,7.97
2022-10-07T03:54:01.136Z,7.94
2022-10-07T03:57:27.200Z,7.91
2022-10-07T04:00:38.918Z,7.96
2022-10-07T04:03:47.941Z,7.82
2022-10-07T04:06:56.280Z,7.76
2022-10-07T04:10:07.484Z,7.90
2022-10-07T04:13:16.143Z,7.82
2022-10-07T04:16:24.455Z,7.95
2022-10-07T04:19:33.358Z,8.03
2022-10-07T04:22:43.613Z,8.12
2022-10-07T04:25:54.929Z,8.28
2022-10-07T04:29:03.947Z,8.43
2022-10-07T04:32:12.760Z,8.59
2022-10-07T04:35:24.532Z,8.69
2022-10-07T04:38:35.275Z,8.87
2022-10-07T04:41:49.831Z,8.95
2022-10-07T04:45:07.199Z,9.07
2022-10-07T04:48:19.340Z,9.19
2022-10-07T04:51:27.930Z,9.24
2022-10-07T04:54:40.339Z,9.25
2022-10-07T04:57:50.963Z,9.20
2022-10-07T05:01:01.951Z,9.19
2022-10-07T05:04:11.721Z,9.15
2022-10-07T05:07:20.336Z,9.21
2022-10-07T05:10:30.689Z,9.18
2022-10-07T05:13:41.077Z,9.35
2022-10-07T05:16:49.677Z,9.39
2022-10-07T05:19:57.992Z,9.50
2022-10-07T05:23:06.717Z,9.48
2022-10-07T05:26:15.277Z,9.47
2022-10-07T05:29:29.598Z,9.53
2022-10-07T05:32:38.017Z,9.59
2022-10-07T05:35:48.694Z,9.76
2022-10-07T05:38:58.552Z,9.72
2022-10-07T05:42:14.428Z,9.86
2022-10-07T05:45:32.018Z,9.86
2022-10-07T05:48:41.370Z,9.87
2022-10-07T05:51:51.298Z,9.72
2022-10-07T05:54:59.876Z,9.81
2022-10-07T05:58:08.600Z,9.90
2022-10-07T06:01:21.062Z,10.04
2022-10-07T06:04:29.648Z,10.05
2022-10-07T06:07:38.124Z,10.22
2022-10-07T06:11:04.982Z,10.42
2022-10-07T06:14:13.835Z,10.48
2022-10-07T06:17:23.525Z,10.50
2022-10-07T06:20:34.513Z,10.65
2022-10-07T06:23:42.942Z,10.81
2022-10-07T06:26:51.421Z,11.03
2022-10-07T06:29:59.820Z,11.20
2022-10-07T06:33:10.044Z,11.27
2022-10-07T06:36:19.058Z,11.23
2022-10-07T06:39:28.760Z,11.27
2022-10-07T06:46:25.657Z,11.56
2022-10-07T06:49:35.883Z,11.61
2022-10-07T06:52:44.237Z,11.68
2022-10-07T06:55:54.706Z,11.74
2022-10-07T06:59:03.578Z,11.76
2022-10-07T07:02:20.216Z,11.81
2022-10-07T07:05:39.082Z,11.97
2022-10-07T07:08:50.376Z,12.12
2022-10-07T07:11:59.192Z,12.30
2022-10-07T07:15:13.245Z,12.27
2022-10-07T07:18:22.285Z,12.16
2022-10-07T07:21:33.581Z,12.38
2022-10-07T07:24:42.557Z,12.49
2022-10-07T07:27:56.808Z,12.56
2022-10-07T07:31:10.519Z,12.50
2022-10-07T07:34:19.536Z,12.24
2022-10-07T07:37:30.465Z,12.33
2022-10-07T07:40:40.509Z,12.59
2022-10-07T07:43:51.796Z,12.81
2022-10-07T07:47:00.664Z,12.96
2022-10-07T07:50:10.746Z,12.90
2022-10-07T07:53:22.925Z,12.91
2022-10-07T07:56:32.753Z,12.98
2022-10-07T07:59:41.676Z,13.16
2022-10-07T08:02:51.007Z,13.03
2022-10-07T08:06:08.642Z,12.99
2022-10-07T08:09:19.467Z,13.22
2022-10-07T08:12:29.377Z,12.56
2022-10-07T08:15:37.817Z,12.37
2022-10-07T08:18:49.340Z,12.35
2022-10-07T08:22:01.143Z,12.80
2022-10-07T08:25:13.218Z,13.14
2022-10-07T08:28:21.951Z,12.92
2022-10-07T08:31:31.735Z,13.32
2022-10-07T08:34:40.471Z,13.74
2022-10-07T08:37:49.062Z,14.00
2022-10-07T08:41:15.046Z,13.98
2022-10-07T08:44:32.094Z,14.00
2022-10-07T08:47:45.071Z,14.18
2022-10-07T08:51:00.890Z,14.21
2022-10-07T08:54:17.388Z,14.00
2022-10-07T08:57:47.744Z,13.84
2022-10-07T09:01:08.441Z,14.29
2022-10-07T09:04:39.637Z,14.62
2022-10-07T09:07:53.198Z,14.88
2022-10-07T09:11:16.565Z,15.07
2022-10-07T09:14:37.300Z,15.09
2022-10-07T09:17:55.792Z,15.18
2022-10-07T09:21:12.935Z,15.43
2022-10-07T09:24:25.719Z,15.77
2022-10-07T09:27:34.381Z,16.26
2022-10-07T09:30:45.234Z,15.83
2022-10-07T09:33:54.339Z,15.97
2022-10-07T09:37:21.179Z,16.32
2022-10-07T09:41:02.325Z,16.51
2022-10-07T09:44:27.537Z,16.85
2022-10-07T09:47:40.529Z,16.97
2022-10-07T09:50:49.824Z,16.82
2022-10-07T09:54:03.781Z,16.82
2022-10-07T09:57:32.084Z,16.57
2022-10-07T10:00:46.277Z,16.57
2022-10-07T10:04:00.304Z,16.44
2022-10-07T10:07:20.754Z,16.51
2022-10-07T10:10:32.454Z,16.51
2022-10-07T10:13:42.509Z,16.46
2022-10-07T10:16:50.985Z,16.56
2022-10-07T10:20:36.033Z,16.82
2022-10-07T10:23:48.270Z,16.83
2022-10-07T10:27:10.596Z,17.01
2022-10-07T10:30:23.562Z,17.27
2022-10-07T10:33:42.509Z,17.14
2022-10-07T10:37:03.481Z,17.42
2022-10-07T10:40:27.194Z,17.29
2022-10-07T10:43:58.534Z,17.37
2022-10-07T10:47:25.628Z,17.39
2022-10-07T10:50:52.427Z,17.10
2022-10-07T10:54:20.775Z,16.54
2022-10-07T10:57:44.223Z,15.23
2022-10-07T11:01:04.026Z,16.00
2022-10-07T11:04:36.385Z,15.73
2022-10-07T11:07:54.243Z,15.70
2022-10-07T11:11:08.848Z,15.04
2022-10-07T11:14:22.835Z,14.97
2022-10-07T11:17:37.563Z,14.78
2022-10-07T11:20:48.455Z,15.46
2022-10-07T11:24:05.053Z,15.40
2022-10-07T11:27:21.374Z,15.20
2022-10-07T11:30:42.031Z,15.39
2022-10-07T11:34:01.751Z,16.30
2022-10-07T11:37:20.257Z,16.79
2022-10-07T11:40:34.649Z,17.14
2022-10-07T11:43:47.439Z,17.89
2022-10-07T11:46:59.128Z,18.36
2022-10-07T11:50:17.683Z,18.36
2022-10-07T11:53:29.793Z,18.53
2022-10-07T11:56:48.089Z,18.17
2022-10-07T12:00:02.768Z,17.89
2022-10-07T12:03:48.550Z,18.32
2022-10-07T12:07:47.291Z,18.66
2022-10-07T12:10:57.084Z,18.71
2022-10-07T12:14:36.416Z,18.78
2022-10-07T12:17:56.270Z,18.19
2022-10-07T12:21:09.343Z,18.33
2022-10-07T12:24:17.634Z,18.71
2022-10-07T12:27:30.496Z,18.58
2022-10-07T12:30:50.555Z,18.17
2022-10-07T12:34:11.305Z,18.54
2022-10-07T12:37:50.116Z,18.34
2022-10-07T12:41:17.761Z,17.63
2022-10-07T12:44:33.727Z,17.53
2022-10-07T12:47:44.637Z,17.24
2022-10-07T12:50:58.128Z,17.45
2022-10-07T12:54:15.957Z,17.51
2022-10-07T12:57:34.089Z,17.50
2022-10-07T13:01:07.523Z,17.09
2022-10-07T13:04:45.767Z,17.15
2022-10-07T13:08:38.503Z,16.91
2022-10-07T13:12:16.228Z,16.95
2022-10-07T13:15:34.841Z,17.09
2022-10-07T13:18:50.439Z,16.91
2022-10-07T13:22:11.181Z,17.18
2022-10-07T13:25:22.479Z,17.37
2022-10-07T13:28:45.737Z,17.42
2022-10-07T13:32:16.316Z,17.39
2022-10-07T13:35:34.077Z,17.49
2022-10-07T13:38:47.999Z,17.76
2022-10-07T13:42:02.117Z,17.73
2022-10-07T13:45:15.834Z,18.20
2022-10-07T13:48:28.416Z,17.78
2022-10-07T13:51:41.933Z,18.12
2022-10-07T13:54:54.285Z,17.67
2022-10-07T13:58:07.040Z,18.04
2022-10-07T14:01:16.484Z,17.81
2022-10-07T14:04:27.442Z,17.96
2022-10-07T14:07:42.903Z,18.18
2022-10-07T14:10:59.402Z,17.46
2022-10-07T14:14:23.953Z,17.08
2022-10-07T14:17:41.898Z,16.95
2022-10-07T14:20:55.357Z,16.53
2022-10-07T14:24:11.536Z,16.38
2022-10-07T14:28:17.397Z,16.16
2022-10-07T14:31:45.781Z,16.16
2022-10-07T14:35:11.614Z,16.24
2022-10-07T14:38:26.345Z,16.15
2022-10-07T14:41:35.709Z,16.17
2022-10-07T14:44:45.049Z,16.39
2022-10-07T14:47:54.634Z,16.42
2022-10-07T14:51:02.991Z,16.45
2022-10-07T14:54:13.756Z,16.42
2022-10-07T14:57:22.527Z,16.36
2022-10-07T15:00:32.890Z,16.37
2022-10-07T15:03:48.709Z,16.42
2022-10-07T15:06:58.014Z,16.42
2022-10-07T15:10:13.150Z,16.34
2022-10-07T15:13:21.383Z,16.32
2022-10-07T15:16:30.123Z,16.19
2022-10-07T15:19:39.687Z,16.21
2022-10-07T15:22:48.152Z,16.13
2022-10-07T15:25:56.790Z,16.07
2022-10-07T15:29:08.432Z,16.00
2022-10-07T15:32:16.871Z,15.90
2022-10-07T15:35:27.799Z,15.78
2022-10-07T15:38:36.136Z,15.67
2022-10-07T15:41:45.608Z,15.52
2022-10-07T15:44:54.733Z,15.55
2022-10-07T15:48:03.124Z,15.51
2022-10-07T15:51:12.765Z,15.42
2022-10-07T15:54:21.106Z,15.32
2022-10-07T15:57:29.334Z,15.28
2022-10-07T16:00:37.520Z,15.15
2022-10-07T16:03:58.999Z,15.00
2022-10-07T16:07:10.625Z,14.88
2022-10-07T16:10:18.934Z,14.82
2022-10-07T16:13:27.110Z,14.64
2022-10-07T16:16:35.353Z,14.42
2022-10-07T16:19:44.403Z,14.33
2022-10-07T16:22:53.940Z,14.21
2022-10-07T16:26:06.372Z,14.08
2022-10-07T16:29:34.403Z,13.88
2022-10-07T16:32:42.935Z,13.85
2022-10-07T16:35:51.205Z,13.58
2022-10-07T16:39:02.507Z,13.40
2022-10-07T16:42:10.930Z,13.25
2022-10-07T16:45:19.282Z,13.10
2022-10-07T16:48:28.733Z,12.95
2022-10-07T16:51:39.080Z,12.82
2022-10-07T16:54:53.061Z,12.74
2022-10-07T16:58:01.393Z,12.57
2022-10-07T17:01:13.685Z,12.50
2022-10-07T17:04:22.668Z,12.43
2022-10-07T17:07:31.566Z,12.33
2022-10-07T17:10:43.867Z,12.28
2022-10-07T17:13:52.285Z,12.23
2022-10-07T17:17:01.669Z,12.13
2022-10-07T17:20:11.247Z,12.08
2022-10-07T17:23:21.021Z,12.06
2022-10-07T17:26:30.845Z,11.98
2022-10-07T17:29:42.588Z,11.95
2022-10-07T17:32:51.547Z,11.89
2022-10-07T17:36:04.571Z,11.87
2022-10-07T17:39:14.030Z,11.83
2022-10-07T17:42:23.972Z,11.78
2022-10-07T17:45:35.998Z,11.66
2022-10-07T17:48:45.814Z,11.55
2022-10-07T17:51:55.221Z,11.52
2022-10-07T17:55:04.246Z,11.66
2022-10-07T17:58:13.793Z,11.83
2022-10-07T18:01:26.416Z,11.90
2022-10-07T18:04:34.596Z,12.01
2022-10-07T18:07:44.642Z,12.04
2022-10-07T18:10:53.757Z,12.06
2022-10-07T18:14:20.986Z,12.11
2022-10-07T18:17:29.468Z,12.09
2022-10-07T18:20:41.590Z,12.13
2022-10-07T18:23:50.331Z,12.12
2022-10-07T18:27:01.069Z,12.10
2022-10-07T18:30:12.272Z,12.07
2022-10-07T18:33:20.711Z,12.08
2022-10-07T18:36:29.260Z,12.09
2022-10-07T18:39:37.500Z,12.06
2022-10-07T18:42:45.651Z,12.12
2022-10-07T18:46:02.161Z,12.06
2022-10-07T18:49:13.598Z,12.13
2022-10-07T18:52:22.156Z,12.03
2022-10-07T18:55:30.871Z,12.06
2022-10-07T18:58:42.712Z,11.87
2022-10-07T19:01:53.269Z,11.98
2022-10-07T19:05:01.798Z,12.01
2022-10-07T19:08:10.932Z,11.93
2022-10-07T19:11:20.898Z,11.93
2022-10-07T19:14:32.110Z,11.88
2022-10-07T19:17:42.070Z,11.92
2022-10-07T19:20:58.773Z,11.93
2022-10-07T19:24:08.142Z,11.91
2022-10-07T19:27:16.348Z,11.94
2022-10-07T19:30:28.164Z,11.74
2022-10-07T19:33:38.161Z,11.80
2022-10-07T19:36:48.041Z,11.82
2022-10-07T19:39:56.335Z,11.74
2022-10-07T19:43:05.601Z,11.77
2022-10-07T19:46:15.163Z,11.82
2022-10-07T19:49:25.033Z,11.85
2022-10-07T19:52:33.499Z,11.84
2022-10-07T19:55:46.217Z,11.83
2022-10-07T19:58:57.784Z,11.80
2022-10-07T20:02:08.342Z,11.93
2022-10-07T20:05:18.641Z,11.77
2022-10-07T20:08:33.853Z,11.74
2022-10-07T20:11:43.165Z,11.71
2022-10-07T20:14:51.340Z,11.66
2022-10-07T20:18:05.193Z,11.67
2022-10-07T20:21:18.245Z,11.63
2022-10-07T20:24:26.876Z,11.63
2022-10-07T20:27:35.574Z,11.63
2022-10-07T20:30:43.733Z,11.46
2022-10-07T20:33:54.392Z,11.54
2022-10-07T20:37:04.807Z,11.50
2022-10-07T20:40:30.744Z,11.33
2022-10-07T20:43:39.114Z,11.34
2022-10-07T20:46:51.706Z,11.27
2022-10-07T20:50:02.717Z,11.25
2022-10-07T20:53:12.457Z,11.14
2022-10-07T20:56:21.108Z,11.08
2022-10-07T20:59:31.365Z,11.05
2022-10-07T21:02:39.599Z,10.93
2022-10-07T21:05:47.793Z,10.88
2022-10-07T21:08:58.097Z,10.79
2022-10-07T21:12:10.830Z,10.74
2022-10-07T21:15:20.159Z,10.78
2022-10-07T21:18:31.068Z,10.66
2022-10-07T21:21:39.598Z,10.59
2022-10-07T21:24:49.388Z,10.49
2022-10-07T21:27:57.863Z,10.37
2022-10-07T21:31:09.733Z,10.30
2022-10-07T21:34:18.123Z,10.20
2022-10-07T21:37:26.582Z,10.21
2022-10-07T21:40:36.238Z,10.03
2022-10-07T21:43:49.664Z,9.98
2022-10-07T21:47:00.100Z,10.01
2022-10-07T21:50:11.232Z,9.95
2022-10-07T21:53:19.649Z,9.83
2022-10-07T21:56:32.095Z,9.78
2022-10-07T21:59:40.557Z,9.80
2022-10-07T22:02:50.518Z,9.74
2022-10-07T22:06:03.510Z,9.70
2022-10-07T22:09:11.394Z,9.64
2022-10-07T22:12:20.969Z,9.63
2022-10-07T22:15:29.167Z,9.62
2022-10-07T22:18:38.052Z,9.60
2022-10-07T22:21:47.170Z,9.57
2022-10-07T22:24:55.703Z,9.46
2022-10-07T22:28:06.184Z,9.51
2022-10-07T22:31:16.818Z,9.45
2022-10-07T22:34:43.284Z,9.41
2022-10-07T22:37:52.294Z,9.53
2022-10-07T22:41:04.165Z,9.39
2022-10-07T22:44:14.247Z,9.40
2022-10-07T22:47:24.824Z,9.30
2022-10-07T22:50:33.744Z,9.40
2022-10-07T22:53:46.487Z,9.47
2022-10-07T22:56:54.864Z,9.44
2022-10-07T23:00:05.507Z,9.42
2022-10-07T23:03:13.682Z,9.33
2022-10-07T23:06:22.429Z,9.37
2022-10-07T23:09:30.815Z,9.41
2022-10-07T23:12:38.950Z,9.38
2022-10-07T23:15:56.917Z,9.32
2022-10-07T23:19:05.101Z,9.28
2022-10-07T23:22:13.365Z,9.28
2022-10-07T23:25:21.503Z,9.31
2022-10-07T23:28:29.973Z,9.25
2022-10-07T23:31:40.331Z,9.16
2022-10-07T23:34:48.601Z,9.14
2022-10-07T23:37:57.350Z,9.13
2022-10-07T23:41:07.045Z,9.13
2022-10-07T23:44:15.314Z,9.15
2022-10-07T23:47:24.823Z,9.18
2022-10-07T23:50:34.808Z,9.14
2022-10-07T23:53:43.092Z,9.12
2022-10-07T23:56:51.280Z,9.11
2022-10-07T23:59:59.446Z,9.12
